Terminal Aerodrome Forecast
Issued by NWS

Home | Current Version | Previous Version | Text Only | Print | Product List | Glossary On
Versions: 1 2 3 4 5 6 7 8 9 10 11 12 13 14 15
000
FTUS43 KJKL 311723
TAFSME
TAF
KSME 311723Z 3118/0118 VRB05KT P6SM SCT040
     FM010700 00000KT 3SM BR SKC
     FM010900 00000KT 1/2SM FG OVC002
     FM011400 02003KT P6SM FEW250=

USA.gov is the U.S. government's official web portal to all federal, state and local government web resources and services.